Time;durP1;ratioP1;P1;durP2;ratioP2;P2;SDS_P1;SDS_P2;PMS_P1;PMS_P2;Temp;Humidity;BMP_temperature;BMP_pressure;BME280_temperature;BME280_humidity;BME280_pressure;Samples;Min_cycle;Max_cycle;Signal;HPM_P1;HPM_P2
2021/07/15 00:00:28;;;;;;;44.00;22.38;;;14.40;99.90;;;;;;4966183;28;20042;-77
2021/07/15 00:02:56;;;;;;;49.95;23.17;;;14.30;99.90;;;;;;4951159;28;20055;-76
2021/07/15 00:05:23;;;;;;;54.55;24.88;;;14.40;99.90;;;;;;4966998;28;20057;-76
2021/07/15 00:07:50;;;;;;;48.33;23.77;;;14.60;99.90;;;;;;4951729;28;20046;-77
2021/07/15 00:10:24;;;;;;;52.88;24.98;;;14.50;99.90;;;;;;4966183;28;20589;-77
2021/07/15 00:12:51;;;;;;;53.37;24.37;;;14.50;99.90;;;;;;4953794;28;20126;-77
2021/07/15 00:15:21;;;;;;;55.70;24.65;;;14.40;99.90;;;;;;4947402;28;20887;-77
2021/07/15 00:17:49;;;;;;;61.42;27.42;;;14.30;99.90;;;;;;4946204;28;20051;-77
2021/07/15 00:20:17;;;;;;;50.13;23.45;;;14.50;99.90;;;;;;4946571;28;20074;-77
2021/07/15 00:22:44;;;;;;;54.65;25.63;;;14.70;99.90;;;;;;4954802;28;20058;-76
2021/07/15 00:25:16;;;;;;;48.97;22.92;;;14.80;99.90;;;;;;4962177;28;20141;-76
2021/07/15 00:27:44;;;;;;;41.13;20.95;;;14.70;99.90;;;;;;4966892;28;20074;-77
2021/07/15 00:30:12;;;;;;;58.00;23.15;;;14.60;99.90;;;;;;4965964;28;20066;-77
2021/07/15 00:32:39;;;;;;;40.72;20.90;;;14.60;99.90;;;;;;4962125;28;20055;-77
2021/07/15 00:35:08;;;;;;;40.28;21.35;;;14.70;99.90;;;;;;4932123;28;20047;-78
2021/07/15 00:37:35;;;;;;;39.50;21.55;;;14.70;99.90;;;;;;4930997;29;20101;-77
2021/07/15 00:40:05;;;;;;;29.77;20.13;;;14.90;99.90;;;;;;4931200;29;20062;-77
2021/07/15 00:42:32;;;;;;;34.60;19.30;;;14.90;99.90;;;;;;4928750;29;20729;-77
2021/07/15 00:44:59;;;;;;;35.08;20.38;;;14.80;99.90;;;;;;4941438;28;20471;-76
2021/07/15 00:47:26;;;;;;;30.75;19.15;;;14.80;99.90;;;;;;4924714;28;20110;-77
2021/07/15 00:49:53;;;;;;;28.15;17.67;;;14.70;99.90;;;;;;4930948;29;20524;-77
2021/07/15 00:52:20;;;;;;;39.33;19.33;;;14.80;99.90;;;;;;4945499;28;20047;-77
2021/07/15 00:54:47;;;;;;;31.25;17.25;;;14.80;99.90;;;;;;4936356;28;20043;-75
2021/07/15 00:57:14;;;;;;;34.33;17.33;;;14.80;99.90;;;;;;4963108;28;20035;-75
2021/07/15 00:59:41;;;;;;;29.05;17.10;;;14.80;99.90;;;;;;4965808;28;20054;-76
2021/07/15 01:02:08;;;;;;;33.15;18.98;;;14.80;99.90;;;;;;4949285;28;20425;-76
2021/07/15 01:04:35;;;;;;;35.60;20.73;;;14.90;99.90;;;;;;4964409;28;20043;-76
2021/07/15 01:07:02;;;;;;;34.85;19.33;;;14.90;99.90;;;;;;4948536;28;20043;-76
2021/07/15 01:09:31;;;;;;;33.58;18.92;;;14.80;99.90;;;;;;4934015;28;20051;-76
2021/07/15 01:12:16;;;;;;;30.73;16.65;;;14.60;99.90;;;;;;4947236;28;20094;-76
2021/07/15 01:14:59;;;;;;;29.35;16.55;;;14.50;99.90;;;;;;4965914;28;20186;-76
2021/07/15 01:17:32;;;;;;;22.42;14.95;;;14.30;99.90;;;;;;4937259;28;20122;-77
2021/07/15 01:20:11;;;;;;;27.17;17.30;;;14.40;99.90;;;;;;4931089;29;20049;-78
2021/07/15 01:22:47;;;;;;;29.88;18.70;;;14.40;99.90;;;;;;4930259;29;20141;-77
2021/07/15 01:25:47;;;;;;;29.95;15.95;;;14.40;99.90;;;;;;4955377;28;20380;-77
2021/07/15 01:28:51;;;;;;;21.10;14.85;;;14.30;99.90;;;;;;4918046;29;20052;-77
2021/07/15 01:31:18;;;;;;;22.48;15.55;;;14.30;99.90;;;;;;4958693;28;20732;-77
2021/07/15 01:33:47;;;;;;;20.60;14.45;;;14.20;99.90;;;;;;4940280;28;20047;-76
2021/07/15 01:36:19;;;;;;;31.02;15.48;;;14.30;99.90;;;;;;4942487;28;20061;-76
2021/07/15 01:38:50;;;;;;;24.50;15.90;;;14.20;99.90;;;;;;4964609;28;20146;-77
2021/07/15 01:41:26;;;;;;;20.77;14.50;;;14.20;99.90;;;;;;4947906;28;20595;-77
2021/07/15 01:44:00;;;;;;;22.55;13.90;;;14.10;99.90;;;;;;4941690;28;20253;-77
2021/07/15 01:46:28;;;;;;;20.50;14.25;;;14.10;99.90;;;;;;4941709;28;20364;-77
2021/07/15 01:48:55;;;;;;;23.33;15.65;;;14.10;99.90;;;;;;4949192;28;20361;-77
2021/07/15 01:51:23;;;;;;;26.17;15.38;;;14.10;99.90;;;;;;4944670;28;20178;-77
2021/07/15 01:53:51;;;;;;;24.70;15.02;;;14.20;99.90;;;;;;4946965;28;20046;-77
2021/07/15 01:56:18;;;;;;;28.10;16.98;;;14.20;99.90;;;;;;4958879;28;20050;-77
2021/07/15 01:58:47;;;;;;;22.67;15.68;;;14.20;99.90;;;;;;4964672;28;20065;-77
2021/07/15 02:01:16;;;;;;;19.58;13.73;;;14.30;99.90;;;;;;4964862;28;20070;-78
2021/07/15 02:03:50;;;;;;;19.85;14.95;;;14.20;99.90;;;;;;4950166;28;20050;-77
2021/07/15 02:06:19;;;;;;;28.83;15.30;;;14.40;99.90;;;;;;4964449;28;20047;-76
2021/07/15 02:08:46;;;;;;;22.38;14.93;;;14.40;99.90;;;;;;4937990;28;20058;-77
2021/07/15 02:11:15;;;;;;;23.77;14.52;;;14.30;99.90;;;;;;4926983;29;20052;-77
2021/07/15 02:13:45;;;;;;;26.25;15.73;;;14.40;99.90;;;;;;4929678;29;20058;-77
2021/07/15 02:16:13;;;;;;;20.80;14.40;;;14.40;99.90;;;;;;4928518;29;20598;-77
2021/07/15 02:18:43;;;;;;;26.33;14.38;;;14.30;99.90;;;;;;4947812;28;20066;-76
2021/07/15 02:21:11;;;;;;;24.38;15.23;;;14.30;99.90;;;;;;4928074;28;20105;-77
2021/07/15 02:23:40;;;;;;;22.83;14.00;;;14.20;99.90;;;;;;4929666;29;20563;-77
2021/07/15 02:26:07;;;;;;;16.70;13.07;;;14.20;99.90;;;;;;4939742;28;20052;-76
2021/07/15 02:28:34;;;;;;;23.52;14.13;;;14.30;99.90;;;;;;4941614;28;20043;-77
2021/07/15 02:31:10;;;;;;;21.00;13.52;;;14.40;99.90;;;;;;4945223;28;20475;-77
2021/07/15 02:33:41;;;;;;;16.75;12.63;;;14.40;99.90;;;;;;4944716;28;20053;-76
2021/07/15 02:36:11;;;;;;;19.38;12.45;;;14.50;99.90;;;;;;4928574;29;20133;-76
2021/07/15 02:38:42;;;;;;;19.08;12.50;;;14.50;99.90;;;;;;4946665;28;20098;-77
2021/07/15 02:41:09;;;;;;;18.77;13.15;;;14.50;99.90;;;;;;4947433;28;20055;-77
2021/07/15 02:43:36;;;;;;;18.33;13.85;;;14.60;99.90;;;;;;4947984;28;20499;-77
2021/07/15 02:46:03;;;;;;;20.75;14.50;;;14.60;99.90;;;;;;4930010;29;20046;-77
2021/07/15 02:48:30;;;;;;;23.20;14.23;;;14.70;99.90;;;;;;4944611;29;20500;-77
2021/07/15 02:50:57;;;;;;;21.60;14.32;;;14.60;99.90;;;;;;4962512;28;20667;-77
2021/07/15 02:53:26;;;;;;;22.27;13.07;;;14.70;99.90;;;;;;4948876;28;20077;-76
2021/07/15 02:56:07;;;;;;;18.08;13.13;;;14.70;99.90;;;;;;4959746;28;20097;-76
2021/07/15 02:58:41;;;;;;;12.73;10.32;;;14.70;99.90;;;;;;4949012;28;20049;-76
2021/07/15 03:01:13;;;;;;;18.83;12.38;;;14.70;99.90;;;;;;4965304;28;20116;-76
2021/07/15 03:04:00;;;;;;;16.55;12.70;;;14.70;99.90;;;;;;4947597;28;20207;-76
2021/07/15 03:06:43;;;;;;;24.33;14.30;;;14.70;99.90;;;;;;4963337;28;20119;-77
2021/07/15 03:09:13;;;;;;;23.42;15.60;;;14.70;99.90;;;;;;4964870;28;20249;-76
2021/07/15 03:11:48;;;;;;;22.52;15.85;;;14.80;99.90;;;;;;4947892;28;20070;-77
2021/07/15 03:14:18;;;;;;;20.33;14.70;;;14.90;99.90;;;;;;4949744;28;20137;-76
2021/07/15 03:16:46;;;;;;;22.95;16.17;;;14.90;99.90;;;;;;4952058;28;20073;-77
2021/07/15 03:19:16;;;;;;;18.98;15.40;;;14.90;99.90;;;;;;4944462;28;20585;-76
2021/07/15 03:21:44;;;;;;;24.90;15.77;;;15.00;99.90;;;;;;4944010;28;20134;-77
2021/07/15 03:24:13;;;;;;;23.13;17.73;;;15.10;99.90;;;;;;4958632;28;20100;-76
2021/07/15 03:26:42;;;;;;;26.02;18.05;;;15.10;99.90;;;;;;4966691;28;20057;-77
2021/07/15 03:29:12;;;;;;;22.10;18.00;;;15.20;99.90;;;;;;4968325;28;20136;-77
2021/07/15 03:31:39;;;;;;;28.92;17.30;;;15.20;99.90;;;;;;4965621;28;20506;-77
2021/07/15 03:34:06;;;;;;;24.50;17.27;;;15.20;99.90;;;;;;4940390;28;20118;-76
2021/07/15 03:36:33;;;;;;;24.38;17.55;;;15.30;99.90;;;;;;4949644;28;20571;-77
2021/07/15 03:39:03;;;;;;;22.33;17.25;;;15.20;99.90;;;;;;4947875;29;20158;-77
2021/07/15 03:41:32;;;;;;;22.88;17.13;;;15.30;99.90;;;;;;4956187;28;20058;-77
2021/07/15 03:44:00;;;;;;;25.98;17.48;;;15.30;99.90;;;;;;4963930;28;20071;-77
2021/07/15 03:46:28;;;;;;;24.73;17.60;;;15.40;99.90;;;;;;4947981;28;20048;-77
2021/07/15 03:48:56;;;;;;;25.45;17.27;;;15.50;99.90;;;;;;4947021;28;20078;-76
2021/07/15 03:51:23;;;;;;;29.67;18.92;;;15.50;99.90;;;;;;4939077;28;20133;-77
2021/07/15 03:53:50;;;;;;;33.80;19.08;;;15.30;99.90;;;;;;4947129;28;20134;-77
2021/07/15 03:56:20;;;;;;;33.60;19.67;;;15.30;99.90;;;;;;4963692;28;20377;-77
2021/07/15 03:58:47;;;;;;;31.40;19.80;;;15.30;99.90;;;;;;4967987;28;20053;-76
2021/07/15 04:01:16;;;;;;;31.08;20.13;;;15.30;99.90;;;;;;4961129;28;20047;-76
2021/07/15 04:03:45;;;;;;;32.33;19.88;;;15.20;99.90;;;;;;4967813;28;20423;-77
2021/07/15 04:06:15;;;;;;;38.40;21.20;;;15.20;99.90;;;;;;4951532;28;20047;-76
2021/07/15 04:08:45;;;;;;;34.95;21.65;;;15.10;99.90;;;;;;4951082;28;20054;-77
2021/07/15 04:11:16;;;;;;;33.92;19.65;;;15.10;99.90;;;;;;4949683;28;20192;-76
2021/07/15 04:13:44;;;;;;;32.50;20.30;;;15.10;99.90;;;;;;4949071;28;20582;-77
2021/07/15 04:16:25;;;;;;;28.85;20.33;;;15.00;99.90;;;;;;4932147;28;20074;-76
2021/07/15 04:18:58;;;;;;;28.92;21.08;;;15.00;99.90;;;;;;4947462;28;20474;-77
2021/07/15 04:21:25;;;;;;;29.17;18.65;;;15.00;99.90;;;;;;4936389;28;20102;-77
2021/07/15 04:23:55;;;;;;;25.35;18.65;;;15.00;99.90;;;;;;4950741;28;20063;-79
2021/07/15 04:26:23;;;;;;;26.45;17.92;;;15.00;99.90;;;;;;4950541;28;20113;-76
2021/07/15 04:28:51;;;;;;;26.65;18.85;;;15.00;99.90;;;;;;4966502;28;20058;-76
2021/07/15 04:31:57;;;;;;;19.80;15.68;;;15.00;99.90;;;;;;4950191;28;20043;-76
2021/07/15 04:34:27;;;;;;;23.88;16.70;;;15.10;99.90;;;;;;4857122;29;20657;-76
2021/07/15 04:36:56;;;;;;;21.35;16.20;;;15.10;99.90;;;;;;4933491;28;20150;-77
2021/07/15 04:39:26;;;;;;;23.70;16.08;;;15.10;99.90;;;;;;4947923;28;20109;-76
2021/07/15 04:41:55;;;;;;;22.45;15.85;;;15.10;99.90;;;;;;4931064;29;20058;-77
2021/07/15 04:44:23;;;;;;;23.50;16.02;;;15.20;99.90;;;;;;4940006;29;20146;-77
2021/07/15 04:46:51;;;;;;;22.95;16.38;;;15.20;99.90;;;;;;4950915;28;20053;-77
2021/07/15 04:49:19;;;;;;;20.15;15.88;;;15.20;99.90;;;;;;4925814;28;20489;-77
2021/07/15 04:51:47;;;;;;;19.48;14.85;;;15.30;99.90;;;;;;4938526;28;20054;-77
2021/07/15 04:54:16;;;;;;;20.42;15.82;;;15.30;99.90;;;;;;4956026;28;20057;-76
2021/07/15 04:56:43;;;;;;;17.77;14.65;;;15.40;99.90;;;;;;4964249;28;20125;-76
2021/07/15 04:59:12;;;;;;;16.33;14.52;;;15.50;99.90;;;;;;4960727;28;20102;-77
2021/07/15 05:01:39;;;;;;;16.67;14.48;;;15.60;99.90;;;;;;4938591;28;20547;-77
2021/07/15 05:04:06;;;;;;;16.05;14.27;;;15.80;99.90;;;;;;4963009;28;20074;-76
2021/07/15 05:06:33;;;;;;;15.40;13.70;;;15.80;99.90;;;;;;4962726;28;20047;-77
2021/07/15 05:09:00;;;;;;;11.98;10.68;;;15.90;99.90;;;;;;4930918;29;20055;-77
2021/07/15 05:11:27;;;;;;;11.80;8.73;;;16.00;99.90;;;;;;4947866;28;20492;-77
2021/07/15 05:13:54;;;;;;;12.05;10.70;;;16.20;99.90;;;;;;4930107;28;20047;-77
2021/07/15 05:16:24;;;;;;;10.63;9.00;;;16.10;99.90;;;;;;4936282;28;20055;-77
2021/07/15 05:18:51;;;;;;;13.45;8.27;;;16.30;99.90;;;;;;4948838;28;20272;-77
2021/07/15 05:21:19;;;;;;;9.50;7.63;;;16.50;99.90;;;;;;4946396;28;20154;-77
2021/07/15 05:23:46;;;;;;;8.50;7.70;;;16.70;99.90;;;;;;4952526;28;20050;-77
2021/07/15 05:26:14;;;;;;;9.48;7.15;;;17.00;99.90;;;;;;4945721;28;20078;-77
2021/07/15 05:28:42;;;;;;;6.55;5.95;;;17.10;99.90;;;;;;4966890;28;20051;-77
2021/07/15 05:31:09;;;;;;;7.85;7.13;;;17.30;99.90;;;;;;4968050;28;20129;-78
2021/07/15 05:33:36;;;;;;;8.20;7.40;;;17.40;99.90;;;;;;4958996;28;20484;-77
2021/07/15 05:36:03;;;;;;;6.93;6.28;;;17.50;99.90;;;;;;4949259;28;20047;-77
2021/07/15 05:38:30;;;;;;;5.60;5.10;;;17.80;99.90;;;;;;4963249;28;20184;-77
2021/07/15 05:40:57;;;;;;;6.65;5.95;;;18.10;99.90;;;;;;4957139;28;20098;-77
2021/07/15 05:43:24;;;;;;;7.10;6.15;;;18.30;99.90;;;;;;4943895;28;20043;-76
2021/07/15 05:45:51;;;;;;;5.63;5.05;;;18.30;99.90;;;;;;4931280;28;20051;-78
2021/07/15 05:48:18;;;;;;;5.72;5.22;;;18.30;99.90;;;;;;4948043;29;20056;-78
2021/07/15 05:50:45;;;;;;;6.60;6.00;;;18.10;99.90;;;;;;4930022;29;20050;-77
2021/07/15 05:53:12;;;;;;;5.10;4.70;;;18.00;99.90;;;;;;4930686;29;20058;-77
2021/07/15 05:55:39;;;;;;;5.35;4.95;;;18.00;99.90;;;;;;4957732;28;20436;-77
2021/07/15 05:58:08;;;;;;;6.45;5.20;;;17.80;99.90;;;;;;4947612;28;20058;-77
2021/07/15 06:00:36;;;;;;;7.05;5.00;;;17.90;99.90;;;;;;4932200;29;20066;-77
2021/07/15 06:03:03;;;;;;;5.22;4.70;;;18.30;99.90;;;;;;4942504;28;20042;-78
2021/07/15 06:05:30;;;;;;;5.43;4.72;;;18.40;99.90;;;;;;4964838;28;20492;-78
2021/07/15 06:07:58;;;;;;;6.43;5.68;;;18.40;99.90;;;;;;4966250;28;20451;-77
2021/07/15 06:10:26;;;;;;;5.40;5.00;;;18.70;99.90;;;;;;4964925;28;20123;-77
2021/07/15 06:12:53;;;;;;;5.85;5.45;;;18.90;99.90;;;;;;4964874;28;20050;-77
2021/07/15 06:15:20;;;;;;;6.10;5.60;;;19.20;99.90;;;;;;4949316;28;20662;-77
2021/07/15 06:17:47;;;;;;;6.53;6.00;;;19.40;99.90;;;;;;4949642;28;20077;-77
2021/07/15 06:20:14;;;;;;;9.50;6.00;;;19.60;99.90;;;;;;4933301;28;20079;-77
2021/07/15 06:22:42;;;;;;;7.00;6.60;;;19.90;99.90;;;;;;4947744;28;20050;-76
2021/07/15 06:25:10;;;;;;;6.43;6.03;;;19.90;99.90;;;;;;4937115;28;20055;-77
2021/07/15 06:27:38;;;;;;;7.72;7.22;;;20.00;99.90;;;;;;4941346;28;20059;-77
2021/07/15 06:30:10;;;;;;;7.45;7.05;;;20.30;99.90;;;;;;4953953;28;20074;-76
2021/07/15 06:32:37;;;;;;;8.50;7.88;;;20.40;99.90;;;;;;4937716;28;20162;-76
2021/07/15 06:35:07;;;;;;;7.82;7.32;;;20.60;99.90;;;;;;4928761;28;20047;-75
2021/07/15 06:37:37;;;;;;;7.15;6.68;;;20.50;99.90;;;;;;4942521;28;20125;-76
2021/07/15 06:40:06;;;;;;;6.97;6.47;;;20.40;99.90;;;;;;4948988;28;20153;-76
2021/07/15 06:42:33;;;;;;;6.43;5.97;;;20.10;99.90;;;;;;4943004;28;20062;-76
2021/07/15 06:45:02;;;;;;;6.60;6.20;;;20.40;99.90;;;;;;4945191;28;20480;-76
2021/07/15 06:47:29;;;;;;;7.40;7.00;;;20.60;99.90;;;;;;4945953;28;20187;-80
2021/07/15 06:49:56;;;;;;;8.48;8.00;;;20.70;99.90;;;;;;4950130;28;20047;-79
2021/07/15 06:52:24;;;;;;;9.27;8.77;;;20.90;99.90;;;;;;4912737;29;20106;-80
2021/07/15 06:54:56;;;;;;;9.25;8.40;;;21.20;99.90;;;;;;4937060;28;20057;-79
2021/07/15 06:57:23;;;;;;;8.35;8.00;;;21.50;99.90;;;;;;4947217;28;20047;-79
2021/07/15 06:59:50;;;;;;;8.45;7.95;;;21.70;99.90;;;;;;4966211;28;20086;-79
2021/07/15 07:02:17;;;;;;;8.00;7.70;;;21.30;99.90;;;;;;4949645;28;20297;-81
2021/07/15 07:04:44;;;;;;;8.68;8.27;;;21.10;99.90;;;;;;4949814;28;20118;-80
2021/07/15 07:07:11;;;;;;;8.50;8.20;;;21.10;99.90;;;;;;4962691;28;20456;-80
2021/07/15 07:09:38;;;;;;;8.68;8.30;;;21.30;99.90;;;;;;4948490;28;20058;-81
2021/07/15 07:12:07;;;;;;;9.05;8.60;;;21.60;99.90;;;;;;4947919;28;20247;-80
2021/07/15 07:14:34;;;;;;;9.10;8.80;;;21.80;99.90;;;;;;4947830;28;20134;-80
2021/07/15 07:17:01;;;;;;;9.88;9.48;;;21.90;99.90;;;;;;4934714;28;20055;-80
2021/07/15 07:19:28;;;;;;;9.35;8.95;;;22.00;99.90;;;;;;4929177;29;20429;-79
2021/07/15 07:21:55;;;;;;;9.18;8.88;;;22.20;99.90;;;;;;4928224;29;20146;-80
2021/07/15 07:24:22;;;;;;;9.70;9.10;;;22.60;99.90;;;;;;4947417;28;20066;-80
2021/07/15 07:26:49;;;;;;;8.25;7.95;;;22.30;99.90;;;;;;4963990;28;20396;-80
2021/07/15 07:29:16;;;;;;;8.35;7.95;;;21.70;99.90;;;;;;4945806;28;20062;-80
2021/07/15 07:31:43;;;;;;;8.45;7.68;;;21.30;99.90;;;;;;4964100;28;20133;-80
2021/07/15 07:34:10;;;;;;;7.70;7.28;;;21.10;99.90;;;;;;4936999;28;20139;-79
2021/07/15 07:36:37;;;;;;;8.38;7.97;;;21.20;99.90;;;;;;4928003;29;20043;-80
2021/07/15 07:39:05;;;;;;;9.45;9.05;;;21.60;99.90;;;;;;4942855;28;20078;-80
2021/07/15 07:41:32;;;;;;;9.98;9.25;;;21.80;99.90;;;;;;4932161;28;20063;-81
2021/07/15 07:43:59;;;;;;;10.68;10.25;;;22.10;99.90;;;;;;4943646;28;20047;-80
2021/07/15 07:46:26;;;;;;;11.05;10.55;;;22.30;99.90;;;;;;4928782;29;20087;-80
2021/07/15 07:48:53;;;;;;;10.75;10.15;;;22.50;99.90;;;;;;4947814;28;20043;-81
2021/07/15 07:51:20;;;;;;;10.45;10.05;;;23.00;99.90;;;;;;4958001;28;20058;-80
2021/07/15 07:53:47;;;;;;;10.70;10.23;;;23.10;99.90;;;;;;4931392;28;20050;-79
2021/07/15 07:56:16;;;;;;;10.40;10.00;;;23.10;99.90;;;;;;4945151;28;20051;-80
2021/07/15 07:58:43;;;;;;;9.90;9.43;;;22.00;99.90;;;;;;4959510;28;20516;-80
2021/07/15 08:01:10;;;;;;;9.07;8.68;;;21.60;99.90;;;;;;4945157;28;20149;-81
2021/07/15 08:03:38;;;;;;;8.45;8.05;;;21.30;99.90;;;;;;4929509;29;20087;-80
2021/07/15 08:06:05;;;;;;;8.23;7.82;;;21.10;99.90;;;;;;4944208;28;20497;-81
2021/07/15 08:08:32;;;;;;;7.55;7.25;;;20.70;99.90;;;;;;4937117;28;20043;-81
2021/07/15 08:10:59;;;;;;;7.03;6.68;;;20.30;99.90;;;;;;4951322;28;20070;-81
2021/07/15 08:13:26;;;;;;;7.25;6.75;;;20.00;99.90;;;;;;4966015;28;20590;-81
2021/07/15 08:15:53;;;;;;;7.22;6.93;;;19.90;99.90;;;;;;4962328;28;20047;-81
2021/07/15 08:18:20;;;;;;;7.50;7.10;;;19.70;99.90;;;;;;4948596;28;20071;-80
2021/07/15 08:20:47;;;;;;;7.40;6.90;;;19.80;99.90;;;;;;4948996;28;20138;-80
2021/07/15 08:23:14;;;;;;;6.60;6.30;;;19.80;99.90;;;;;;4948162;28;20043;-80
2021/07/15 08:25:42;;;;;;;7.22;6.82;;;19.80;99.90;;;;;;4959829;28;20058;-81
2021/07/15 08:28:09;;;;;;;7.20;6.80;;;19.90;99.90;;;;;;4967013;28;20114;-80
2021/07/15 08:30:36;;;;;;;7.50;7.10;;;19.70;99.90;;;;;;4950582;28;20126;-80
2021/07/15 08:33:04;;;;;;;8.75;8.25;;;19.80;99.90;;;;;;4965032;28;20039;-81
2021/07/15 08:35:33;;;;;;;8.57;8.18;;;20.10;99.90;;;;;;4948283;28;20051;-78
2021/07/15 08:38:00;;;;;;;7.82;7.53;;;20.30;99.90;;;;;;4952617;28;20051;-79
2021/07/15 08:40:27;;;;;;;8.45;8.15;;;20.90;99.90;;;;;;4950482;28;20184;-79
2021/07/15 08:42:55;;;;;;;8.43;7.93;;;21.50;99.90;;;;;;4934675;29;20489;-79
2021/07/15 08:45:22;;;;;;;8.70;8.30;;;21.40;99.90;;;;;;4951953;28;20555;-78
2021/07/15 08:47:51;;;;;;;9.80;9.40;;;22.00;99.90;;;;;;4936795;29;20051;-79
2021/07/15 08:50:19;;;;;;;9.25;8.85;;;22.20;99.90;;;;;;4935635;28;20113;-80
2021/07/15 08:52:46;;;;;;;8.50;8.10;;;22.10;99.90;;;;;;4967850;28;20043;-80
2021/07/15 08:57:46;;;;;;;9.65;9.15;;;22.10;99.90;;;;;;4950772;28;20086;-81
2021/07/15 09:00:17;;;;;;;8.85;8.45;;;22.10;99.90;;;;;;4965830;28;20527;-81
2021/07/15 09:02:45;;;;;;;11.23;10.48;;;22.20;99.90;;;;;;4947725;29;20051;-80
2021/07/15 09:05:14;;;;;;;10.30;9.70;;;22.50;99.90;;;;;;4931483;28;20518;-82
2021/07/15 09:07:44;;;;;;;9.70;9.10;;;21.80;99.90;;;;;;4932153;29;20042;-80
2021/07/15 09:10:12;;;;;;;9.40;8.93;;;21.90;99.90;;;;;;4947936;28;20571;-80
2021/07/15 09:12:39;;;;;;;9.10;8.77;;;21.80;99.90;;;;;;4946424;28;20688;-78
2021/07/15 09:15:08;;;;;;;9.52;9.18;;;21.80;99.90;;;;;;4950277;28;20522;-79
2021/07/15 09:17:36;;;;;;;10.23;9.82;;;21.90;99.90;;;;;;4933081;28;20035;-80
2021/07/15 09:20:25;;;;;;;9.95;9.35;;;22.00;99.90;;;;;;4911827;29;20106;-80
2021/07/15 09:23:07;;;;;;;8.80;8.40;;;22.20;99.90;;;;;;4962094;28;20065;-79
2021/07/15 09:25:37;;;;;;;9.32;8.98;;;22.40;99.90;;;;;;4960146;28;20657;-78
2021/07/15 09:28:10;;;;;;;9.00;8.50;;;22.40;99.90;;;;;;4965968;28;20063;-79
2021/07/15 09:30:38;;;;;;;8.77;8.45;;;22.00;99.90;;;;;;4970056;28;20146;-79
2021/07/15 09:33:09;;;;;;;10.32;9.90;;;22.10;99.90;;;;;;4939593;29;20047;-80
2021/07/15 09:35:37;;;;;;;10.13;9.65;;;22.30;99.90;;;;;;4931785;29;20171;-81
2021/07/15 09:38:19;;;;;;;9.52;9.10;;;22.30;99.90;;;;;;4932047;29;20170;-82
2021/07/15 09:40:50;;;;;;;10.40;10.00;;;22.30;99.90;;;;;;4915070;29;20488;-80
2021/07/15 09:43:22;;;;;;;10.95;10.43;;;22.00;99.90;;;;;;4961356;28;20047;-81
2021/07/15 09:45:54;;;;;;;9.43;9.02;;;22.20;99.90;;;;;;4930016;28;20066;-80
2021/07/15 09:48:28;;;;;;;9.73;9.23;;;22.90;99.90;;;;;;4947140;28;20141;-81
2021/07/15 09:50:57;;;;;;;10.18;9.52;;;23.50;99.90;;;;;;4940879;28;20515;-79
2021/07/15 09:53:42;;;;;;;10.50;10.10;;;23.40;99.90;;;;;;4949585;28;20142;-79
2021/07/15 09:56:13;;;;;;;;;;;23.20;99.90;;;;;;4958768;28;20047;-80
2021/07/15 09:58:43;;;;;;;9.93;9.52;;;23.30;99.90;;;;;;4941411;28;19929;-79
2021/07/15 10:01:11;;;;;;;9.57;9.10;;;23.30;99.90;;;;;;4930434;28;20237;-79
2021/07/15 10:03:41;;;;;;;9.02;8.60;;;22.70;99.90;;;;;;4952557;28;20050;-80
2021/07/15 10:06:10;;;;;;;9.60;9.30;;;22.50;99.90;;;;;;4929120;29;20106;-80
2021/07/15 10:08:40;;;;;;;9.13;8.65;;;22.70;99.90;;;;;;4945865;28;20070;-80
2021/07/15 10:11:13;;;;;;;8.73;8.43;;;22.80;99.90;;;;;;4912169;28;20146;-80
2021/07/15 10:13:41;;;;;;;9.13;8.63;;;22.80;99.90;;;;;;4952688;28;20054;-80
2021/07/15 10:16:09;;;;;;;8.20;7.80;;;22.80;99.90;;;;;;4958636;28;20125;-81
2021/07/15 10:18:44;;;;;;;9.88;9.48;;;22.90;99.90;;;;;;4946264;28;20142;-78
2021/07/15 10:21:13;;;;;;;10.05;9.43;;;22.70;99.90;;;;;;4948067;28;20055;-81
2021/07/15 10:23:47;;;;;;;9.00;8.63;;;22.70;99.90;;;;;;4914832;29;20051;-80
2021/07/15 10:26:31;;;;;;;9.82;9.52;;;22.70;99.90;;;;;;4944958;28;20061;-79
2021/07/15 10:28:59;;;;;;;10.10;9.60;;;23.00;99.90;;;;;;4951518;28;20113;-80
2021/07/15 10:31:28;;;;;;;9.55;9.25;;;23.50;99.90;;;;;;4958203;28;20507;-79
2021/07/15 10:33:55;;;;;;;9.00;8.70;;;24.00;99.90;;;;;;4956603;28;20110;-80
2021/07/15 10:36:23;;;;;;;10.73;10.32;;;24.50;99.90;;;;;;4947114;28;20054;-79
2021/07/15 10:38:53;;;;;;;10.93;10.30;;;24.20;99.90;;;;;;4929430;29;20397;-81
2021/07/15 10:41:22;;;;;;;9.75;9.35;;;24.10;99.90;;;;;;4945020;28;20059;-80
2021/07/15 10:43:51;;;;;;;9.05;8.65;;;23.40;99.90;;;;;;4930334;28;20043;-81
2021/07/15 10:46:18;;;;;;;9.70;9.20;;;23.50;99.90;;;;;;4957485;28;20836;-81
2021/07/15 10:48:48;;;;;;;9.60;9.20;;;23.50;99.90;;;;;;4928327;29;20047;-80
2021/07/15 10:51:16;;;;;;;9.30;8.90;;;23.50;99.90;;;;;;4944772;28;20050;-80
2021/07/15 10:53:44;;;;;;;10.45;9.85;;;23.40;99.90;;;;;;4928426;28;20092;-80
2021/07/15 10:56:16;;;;;;;9.77;9.38;;;23.30;99.90;;;;;;4943696;28;20042;-80
2021/07/15 10:58:44;;;;;;;10.98;10.23;;;23.00;99.90;;;;;;4948554;28;20320;-80
2021/07/15 11:01:32;;;;;;;10.25;9.85;;;23.00;99.90;;;;;;4948928;28;20467;-80
2021/07/15 11:04:13;;;;;;;10.75;10.35;;;22.60;99.90;;;;;;4965621;28;20401;-81
2021/07/15 11:06:51;;;;;;;11.20;10.70;;;22.20;99.90;;;;;;4930668;28;20171;-82
2021/07/15 11:09:33;;;;;;;11.52;10.60;;;21.90;99.90;;;;;;4945265;29;20047;-81
2021/07/15 11:12:02;;;;;;;10.43;10.02;;;22.70;99.90;;;;;;4929185;29;20114;-80
2021/07/15 11:14:47;;;;;;;10.50;9.80;;;23.30;99.90;;;;;;4929264;28;20071;-80
2021/07/15 11:17:29;;;;;;;10.45;9.98;;;24.40;99.90;;;;;;4924857;29;20127;-82
2021/07/15 11:20:01;;;;;;;11.38;10.93;;;25.20;99.90;;;;;;4938677;28;20604;-81
2021/07/15 11:22:37;;;;;;;11.27;10.75;;;24.80;99.90;;;;;;4929610;29;20051;-82
2021/07/15 11:25:05;;;;;;;11.02;10.60;;;24.00;99.90;;;;;;4951650;28;20039;-81
2021/07/15 11:27:42;;;;;;;11.20;10.63;;;24.40;99.90;;;;;;4958686;28;20225;-79
2021/07/15 11:30:30;;;;;;;10.90;10.50;;;25.20;99.90;;;;;;4944009;29;20487;-79
2021/07/15 11:33:30;;;;;;;9.90;9.60;;;25.10;99.90;;;;;;4935165;28;20067;-80
2021/07/15 11:36:32;;;;;;;10.68;10.27;;;23.80;99.90;;;;;;4940086;28;20047;-81
2021/07/15 11:39:08;;;;;;;10.95;10.55;;;22.80;99.90;;;;;;4950756;28;20054;-83
2021/07/15 11:42:16;;;;;;;11.02;10.45;;;23.10;99.90;;;;;;4942950;28;20054;-80
2021/07/15 11:45:05;;;;;;;10.68;10.18;;;24.10;99.90;;;;;;4952083;28;20047;-81
2021/07/15 11:47:54;;;;;;;10.48;10.00;;;24.90;99.90;;;;;;4925433;29;20139;-80
2021/07/15 11:50:45;;;;;;;9.85;9.35;;;25.50;99.90;;;;;;4928893;28;20044;-81
2021/07/15 11:53:20;;;;;;;10.13;9.60;;;25.90;99.90;;;;;;4947738;29;20063;-82
2021/07/15 11:55:51;;;;;;;10.93;10.48;;;25.80;99.90;;;;;;4945168;28;20058;-81
2021/07/15 11:58:37;;;;;;;10.02;9.43;;;25.70;99.90;;;;;;4953273;28;20113;-80
2021/07/15 12:01:29;;;;;;;9.45;9.00;;;25.40;99.90;;;;;;4953270;28;20105;-81
2021/07/15 12:04:00;;;;;;;10.40;9.63;;;25.50;99.90;;;;;;4953721;28;20149;-81
2021/07/15 12:06:29;;;;;;;9.63;9.32;;;25.90;99.90;;;;;;4960820;28;20058;-81
2021/07/15 12:09:20;;;;;;;10.10;9.50;;;26.00;99.90;;;;;;4950935;28;20062;-81
2021/07/15 12:11:52;;;;;;;10.15;9.75;;;25.70;99.90;;;;;;4934184;29;20047;-81
2021/07/15 12:14:20;;;;;;;9.68;9.18;;;24.90;99.90;;;;;;4935087;29;20043;-80
2021/07/15 12:16:49;;;;;;;9.30;8.90;;;23.90;99.90;;;;;;4935553;28;20074;-81
2021/07/15 12:19:16;;;;;;;9.00;8.70;;;23.40;99.90;;;;;;4933530;29;20556;-81
2021/07/15 12:21:43;;;;;;;10.05;9.65;;;23.50;99.90;;;;;;4961577;28;20053;-81
2021/07/15 12:24:13;;;;;;;9.70;9.30;;;23.90;99.90;;;;;;4964607;28;20070;-80
2021/07/15 12:26:41;;;;;;;9.57;9.20;;;24.20;99.90;;;;;;4948521;28;20089;-81
2021/07/15 12:29:13;;;;;;;9.18;8.80;;;24.00;99.90;;;;;;4937628;29;20085;-81
2021/07/15 12:31:42;;;;;;;9.52;9.13;;;23.40;99.90;;;;;;4934050;29;20054;-82
2021/07/15 12:34:10;;;;;;;9.25;8.90;;;23.30;99.90;;;;;;4950773;28;20047;-81
2021/07/15 12:36:40;;;;;;;10.40;9.90;;;23.60;99.90;;;;;;4942740;28;20046;-82
2021/07/15 12:39:10;;;;;;;9.65;9.25;;;23.70;99.90;;;;;;4937675;28;20093;-82
2021/07/15 12:41:41;;;;;;;9.57;9.18;;;24.20;99.90;;;;;;4937348;28;20066;-81
2021/07/15 12:44:12;;;;;;;11.10;10.38;;;24.00;99.90;;;;;;4964235;28;20070;-81
2021/07/15 12:46:44;;;;;;;9.70;9.32;;;24.20;99.90;;;;;;4936862;28;20058;-82
2021/07/15 12:49:16;;;;;;;9.57;9.18;;;24.20;99.90;;;;;;4934463;29;20130;-81
2021/07/15 12:51:43;;;;;;;10.57;10.18;;;24.50;99.90;;;;;;4933640;28;20103;-81
2021/07/15 12:54:14;;;;;;;10.65;10.25;;;24.60;99.90;;;;;;4934995;28;20122;-83